Time;durP1;ratioP1;P1;durP2;ratioP2;P2;SDS_P1;SDS_P2;PMS_P1;PMS_P2;Temp;Humidity;BMP_temperature;BMP_pressure;BME280_temperature;BME280_humidity;BME280_pressure;Samples;Min_cycle;Max_cycle;Signal;HPM_P1;HPM_P2
2022/11/12 00:01:03;;;;;;;10.20;5.90;;;;;;;4.48;75.34;94391.13;2054549;70;20549;-74
2022/11/12 00:03:47;;;;;;;12.55;6.90;;;;;;;4.36;75.25;94389.81;2054617;70;20212;-76
2022/11/12 00:06:31;;;;;;;12.75;6.47;;;;;;;4.44;75.18;94395.50;2054391;70;20153;-75
2022/11/12 00:09:15;;;;;;;9.02;5.93;;;;;;;4.45;75.91;94397.78;2054300;69;20224;-75
2022/11/12 00:11:59;;;;;;;10.73;5.88;;;;;;;4.18;77.20;94390.59;2054376;69;20252;-76
2022/11/12 00:14:43;;;;;;;10.25;5.22;;;;;;;4.34;76.97;94384.00;2051706;70;20240;-76
2022/11/12 00:17:27;;;;;;;10.65;5.00;;;;;;;4.36;76.01;94380.69;2054338;70;20177;-75
2022/11/12 00:20:12;;;;;;;8.15;4.30;;;;;;;4.40;75.68;94387.47;2054384;70;20189;-75
2022/11/12 00:22:56;;;;;;;7.45;3.60;;;;;;;4.48;76.76;94371.63;2054448;70;20153;-76
2022/11/12 00:25:40;;;;;;;8.75;3.22;;;;;;;4.44;75.97;94370.41;2054515;69;20157;-75
2022/11/12 00:28:24;;;;;;;6.47;2.50;;;;;;;4.54;76.68;94377.13;2054511;69;20217;-75
2022/11/12 00:31:10;;;;;;;7.07;2.95;;;;;;;4.51;76.69;94376.13;2054429;70;20562;-75
2022/11/12 00:33:54;;;;;;;9.13;4.28;;;;;;;4.42;76.83;94370.97;2051705;70;20173;-76
2022/11/12 00:36:39;;;;;;;7.30;3.22;;;;;;;4.40;75.37;94372.75;2054461;69;20145;-75
2022/11/12 00:39:24;;;;;;;7.90;3.28;;;;;;;4.34;75.89;94367.28;2054369;70;20169;-75
2022/11/12 00:42:09;;;;;;;8.65;3.17;;;;;;;4.39;75.97;94372.00;2054450;69;20662;-75
2022/11/12 00:44:53;;;;;;;4.85;3.30;;;;;;;4.39;75.76;94374.03;2054459;70;20678;-75
2022/11/12 00:47:38;;;;;;;8.15;3.75;;;;;;;4.33;76.90;94365.78;2054518;70;20179;-74
2022/11/12 00:50:22;;;;;;;6.90;3.47;;;;;;;4.39;75.36;94358.06;2054538;69;20149;-74
2022/11/12 00:53:06;;;;;;;5.80;3.35;;;;;;;4.36;75.00;94367.50;2054449;70;20522;-75
2022/11/12 00:55:52;;;;;;;6.28;3.42;;;;;;;4.33;75.37;94377.69;2054388;70;20562;-74
2022/11/12 00:58:36;;;;;;;6.55;3.40;;;;;;;4.30;75.37;94358.47;2054202;70;20605;-75
2022/11/12 01:01:21;;;;;;;6.43;3.58;;;;;;;4.30;74.72;94364.03;2051593;70;20281;-75
2022/11/12 01:04:05;;;;;;;6.35;3.53;;;;;;;4.25;75.41;94368.41;2054340;70;20240;-74
2022/11/12 01:06:49;;;;;;;6.53;3.40;;;;;;;4.30;74.70;94366.81;2054400;69;20213;-75
2022/11/12 01:09:33;;;;;;;7.15;3.78;;;;;;;4.27;75.36;94362.31;2054354;69;20176;-76
2022/11/12 01:12:17;;;;;;;5.80;3.10;;;;;;;4.24;76.27;94361.34;2054497;70;20289;-75
2022/11/12 01:15:02;;;;;;;4.95;3.10;;;;;;;4.26;75.56;94366.38;2054344;69;20216;-74
2022/11/12 01:17:50;;;;;;;7.32;4.10;;;;;;;4.07;76.68;94369.94;2054312;70;20304;-75
2022/11/12 01:20:36;;;;;;;7.13;3.78;;;;;;;4.11;74.82;94357.75;2054335;69;20626;-75
2022/11/12 01:23:21;;;;;;;8.15;3.83;;;;;;;4.24;75.00;94358.56;2054359;69;20316;-75
2022/11/12 01:26:07;;;;;;;6.15;3.50;;;;;;;4.19;74.37;94364.97;2054384;70;20608;-75
2022/11/12 01:28:51;;;;;;;5.32;3.20;;;;;;;4.16;75.53;94357.66;2054218;70;20242;-75
2022/11/12 01:31:37;;;;;;;5.78;3.20;;;;;;;4.10;74.71;94354.19;2054318;69;20142;-76
2022/11/12 01:34:22;;;;;;;5.25;3.13;;;;;;;4.12;75.10;94354.41;2054573;70;20153;-76
2022/11/12 01:37:06;;;;;;;5.78;3.10;;;;;;;4.08;75.62;94351.19;2054295;69;20331;-76
2022/11/12 01:39:50;;;;;;;5.60;3.40;;;;;;;4.25;74.92;94354.47;2054374;69;20256;-75
2022/11/12 01:42:34;;;;;;;6.15;3.03;;;;;;;4.14;74.52;94345.53;2054244;69;20152;-75
2022/11/12 01:45:18;;;;;;;5.88;2.85;;;;;;;4.24;74.44;94352.22;2054404;70;20161;-76
2022/11/12 01:48:03;;;;;;;6.88;3.10;;;;;;;3.91;75.56;94337.50;2054368;70;20653;-76
2022/11/12 01:50:47;;;;;;;8.05;2.55;;;;;;;4.16;74.58;94326.25;2054249;70;20546;-74
2022/11/12 01:53:37;;;;;;;5.18;2.85;;;;;;;3.96;75.28;94319.94;2054444;70;20216;-74
2022/11/12 01:56:23;;;;;;;4.85;2.97;;;;;;;4.06;76.23;94323.09;2054255;70;20511;-75
2022/11/12 01:59:11;;;;;;;5.93;3.33;;;;;;;4.02;74.75;94317.81;2054159;70;20681;-75
2022/11/12 02:01:56;;;;;;;4.78;2.95;;;;;;;3.91;75.62;94295.69;2054501;69;20223;-75
2022/11/12 02:04:41;;;;;;;5.20;2.90;;;;;;;4.12;74.41;94307.03;2054291;69;20217;-75
2022/11/12 02:07:26;;;;;;;8.52;2.80;;;;;;;4.10;74.46;94306.81;2054317;69;20244;-75
2022/11/12 02:10:10;;;;;;;5.38;2.95;;;;;;;4.07;74.27;94305.06;2054284;69;20160;-75
2022/11/12 02:15:58;;;;;;;;;;;;;;;4.08;74.07;94312.19;2054442;69;20200;-76
2022/11/12 02:18:42;;;;;;;4.97;2.50;;;;;;;4.17;74.91;94309.00;2054174;69;20065;-75
2022/11/12 02:21:27;;;;;;;5.28;2.38;;;;;;;4.15;74.12;94308.75;2054287;69;20189;-77
2022/11/12 02:24:11;;;;;;;4.45;2.50;;;;;;;4.00;75.08;94302.91;2054275;70;20658;-78
2022/11/12 02:26:55;;;;;;;7.38;2.88;;;;;;;3.90;75.12;94299.03;2054238;69;20253;-75
2022/11/12 02:29:45;;;;;;;2.72;2.17;;;;;;;4.07;75.21;94308.63;2054171;70;20161;-77
2022/11/12 02:32:29;;;;;;;5.05;2.60;;;;;;;3.98;75.13;94311.03;2054072;69;20232;-78
2022/11/12 02:35:13;;;;;;;5.72;2.72;;;;;;;3.73;76.09;94305.56;2054272;69;20197;-76
2022/11/12 02:37:58;;;;;;;6.65;2.58;;;;;;;3.94;75.92;94303.00;2054213;69;20533;-77
2022/11/12 02:40:43;;;;;;;3.75;2.00;;;;;;;4.20;74.89;94304.38;2054169;69;20220;-75
2022/11/12 02:43:27;;;;;;;3.22;1.67;;;;;;;4.31;74.67;94293.81;2054258;70;20250;-79
2022/11/12 02:46:11;;;;;;;3.30;1.77;;;;;;;4.40;73.75;94295.47;2054191;69;20153;-76
2022/11/12 02:48:56;;;;;;;4.15;2.10;;;;;;;4.20;75.14;94290.44;2055043;70;20181;-77
2022/11/12 02:51:40;;;;;;;3.72;2.58;;;;;;;4.22;74.92;94291.44;2052181;70;20148;-80
2022/11/12 02:54:24;;;;;;;4.45;2.30;;;;;;;4.30;74.98;94288.75;2054110;70;20193;-76
2022/11/12 02:57:08;;;;;;;3.88;2.50;;;;;;;4.33;74.11;94288.44;2053956;70;20647;-78
2022/11/12 02:59:52;;;;;;;3.42;2.30;;;;;;;4.20;74.51;94296.03;2051730;70;20200;-79
2022/11/12 03:02:57;;;;;;;4.43;2.30;;;;;;;4.22;74.07;94285.84;2054052;70;20666;-76
2022/11/12 03:05:42;;;;;;;3.53;2.03;;;;;;;4.29;74.43;94288.00;2052369;70;20697;-76
2022/11/12 03:08:28;;;;;;;3.35;2.22;;;;;;;3.82;74.80;94282.91;2051962;70;20649;-76
2022/11/12 03:11:18;;;;;;;3.42;2.30;;;;;;;4.05;74.52;94288.88;2054729;70;20677;-76
2022/11/12 03:14:09;;;;;;;2.97;2.10;;;;;;;4.14;74.72;94284.97;2051967;70;20245;-76
2022/11/12 03:16:54;;;;;;;2.80;1.90;;;;;;;4.19;73.94;94284.13;2054361;69;20546;-76
2022/11/12 03:19:38;;;;;;;3.90;2.25;;;;;;;4.15;74.68;94285.72;2051453;70;20574;-75
2022/11/12 03:22:25;;;;;;;2.80;1.85;;;;;;;4.10;74.27;94278.94;2051026;70;20177;-75
2022/11/12 03:25:10;;;;;;;3.25;2.20;;;;;;;4.08;75.36;94289.88;2047512;70;20146;-75
2022/11/12 03:27:58;;;;;;;6.18;2.40;;;;;;;4.14;75.17;94273.06;2050385;70;20146;-75
2022/11/12 03:30:43;;;;;;;6.75;3.20;;;;;;;4.24;75.52;94274.91;2050460;70;20248;-75
2022/11/12 03:33:27;;;;;;;3.65;2.35;;;;;;;4.28;74.74;94278.16;2050601;70;20158;-76
2022/11/12 03:36:11;;;;;;;3.00;1.90;;;;;;;4.40;74.41;94281.50;2050510;70;20233;-75
2022/11/12 03:38:55;;;;;;;3.92;2.50;;;;;;;4.24;74.41;94277.69;2050568;70;20161;-75
2022/11/12 03:41:39;;;;;;;4.57;2.60;;;;;;;4.21;75.07;94275.22;2050362;70;20213;-74
2022/11/12 03:44:25;;;;;;;4.22;2.60;;;;;;;4.31;74.60;94274.31;2051112;70;20233;-74
2022/11/12 03:47:10;;;;;;;4.03;2.70;;;;;;;4.27;74.30;94275.91;2051390;70;20192;-74
2022/11/12 03:49:57;;;;;;;4.03;2.72;;;;;;;4.30;74.40;94272.78;2051185;70;20683;-75
2022/11/12 03:52:51;;;;;;;3.35;2.40;;;;;;;4.33;74.74;94273.75;2048067;70;20145;-74
2022/11/12 03:55:35;;;;;;;3.80;2.50;;;;;;;4.28;74.96;94269.03;2050984;70;20161;-74
2022/11/12 03:58:19;;;;;;;2.30;1.80;;;;;;;4.41;74.68;94268.31;2050874;70;20225;-74
2022/11/12 04:01:03;;;;;;;3.28;2.25;;;;;;;4.31;74.86;94265.94;2052174;70;20652;-73
2022/11/12 04:03:48;;;;;;;5.97;2.63;;;;;;;4.13;75.38;94258.38;2054862;70;20672;-74
2022/11/12 04:09:35;;;;;;;4.78;2.38;;;;;;;4.36;75.13;94261.56;2054597;69;20157;-75
2022/11/12 04:15:24;;;;;;;4.05;2.15;;;;;;;4.54;73.92;94257.94;2052239;69;20687;-75
2022/11/12 04:27:37;;;;;;;3.78;2.15;;;;;;;4.74;73.78;94245.41;2054643;69;20177;-75
2022/11/12 04:30:21;;;;;;;3.33;2.03;;;;;;;4.73;74.09;94241.09;2054736;69;20217;-76
2022/11/12 04:33:07;;;;;;;4.60;2.00;;;;;;;4.81;73.92;94244.00;2054543;70;20219;-75
2022/11/12 04:35:51;;;;;;;3.00;1.80;;;;;;;4.95;73.10;94253.91;2054510;69;20149;-75
2022/11/12 04:38:35;;;;;;;4.22;1.75;;;;;;;4.87;73.80;94241.88;2054010;70;20598;-75
2022/11/12 04:47:33;;;;;;;8.23;4.57;;;;;;;5.14;72.17;94253.03;2054123;70;20216;-75
2022/11/12 04:50:17;;;;;;;9.15;3.90;;;;;;;5.12;72.75;94264.72;2054417;70;20682;-75
2022/11/12 04:53:02;;;;;;;5.38;3.40;;;;;;;5.10;73.47;94262.47;2051724;70;20184;-75
2022/11/12 04:55:50;;;;;;;5.20;2.75;;;;;;;5.19;73.43;94258.50;2054391;70;20517;-74
2022/11/12 04:58:34;;;;;;;7.80;3.70;;;;;;;4.95;73.64;94267.06;2054343;69;20148;-75
2022/11/12 05:01:19;;;;;;;8.15;3.15;;;;;;;5.12;73.14;94261.94;2054494;70;20517;-75
2022/11/12 05:04:03;;;;;;;7.82;3.40;;;;;;;5.19;72.57;94261.28;2054458;69;20664;-74
2022/11/12 05:06:50;;;;;;;5.10;2.92;;;;;;;4.99;73.06;94262.66;2054455;70;20196;-75
2022/11/12 05:09:34;;;;;;;3.88;2.60;;;;;;;5.06;73.90;94258.50;2054581;70;20620;-76
2022/11/12 05:12:19;;;;;;;6.15;2.88;;;;;;;5.17;73.51;94254.72;2054383;69;20181;-75
2022/11/12 05:15:05;;;;;;;4.38;2.20;;;;;;;5.21;72.77;94255.16;2054457;69;20597;-75
2022/11/12 05:17:50;;;;;;;8.48;4.47;;;;;;;5.04;73.67;94263.84;2054410;69;20250;-75
2022/11/12 05:20:35;;;;;;;9.05;4.22;;;;;;;4.98;74.01;94266.75;2054411;70;20176;-75
2022/11/12 05:23:19;;;;;;;7.43;4.13;;;;;;;5.02;73.40;94264.41;2054526;70;20148;-75
2022/11/12 05:26:03;;;;;;;8.55;3.45;;;;;;;5.00;73.87;94264.19;2054636;70;20142;-75
2022/11/12 05:28:47;;;;;;;6.25;3.72;;;;;;;4.99;74.18;94257.09;2054576;70;20231;-75
2022/11/12 05:31:31;;;;;;;11.18;5.65;;;;;;;5.06;73.27;94256.47;2054722;70;20149;-75
2022/11/12 05:34:15;;;;;;;15.48;10.38;;;;;;;4.99;72.90;94259.13;2054529;70;20342;-74
2022/11/12 05:37:03;;;;;;;16.48;9.77;;;;;;;5.01;73.14;94256.56;2054563;69;20224;-74
2022/11/12 05:39:47;;;;;;;15.98;8.77;;;;;;;4.99;72.91;94268.25;2054505;70;20161;-76
2022/11/12 05:42:31;;;;;;;23.27;12.98;;;;;;;5.04;73.27;94266.66;2054355;69;20149;-75
2022/11/12 05:45:16;;;;;;;20.45;11.35;;;;;;;5.10;73.19;94261.72;2054384;69;20168;-74
2022/11/12 05:48:00;;;;;;;21.10;11.90;;;;;;;5.12;72.37;94267.50;2054496;69;20161;-74
2022/11/12 05:50:48;;;;;;;13.82;7.90;;;;;;;5.05;73.47;94268.16;2054772;69;20232;-75
2022/11/12 05:53:36;;;;;;;13.98;8.38;;;;;;;4.97;73.59;94270.84;2054454;70;20213;-76
2022/11/12 05:56:20;;;;;;;19.10;10.45;;;;;;;5.00;73.59;94269.03;2054463;70;20160;-75
2022/11/12 05:59:07;;;;;;;15.77;9.55;;;;;;;4.81;74.40;94275.47;2054364;69;20240;-75
2022/11/12 06:01:51;;;;;;;17.38;9.88;;;;;;;5.01;74.16;94273.31;2051889;70;20613;-75
2022/11/12 06:04:35;;;;;;;18.33;11.48;;;;;;;5.01;74.35;94273.31;2054387;69;20149;-75
2022/11/12 06:07:19;;;;;;;22.20;13.95;;;;;;;5.05;73.34;94270.97;2054164;69;20293;-75
2022/11/12 06:10:04;;;;;;;25.52;15.25;;;;;;;5.06;73.26;94278.03;2054401;70;20659;-75
2022/11/12 06:12:48;;;;;;;24.77;16.52;;;;;;;5.16;72.96;94278.34;2054396;69;20229;-75
2022/11/12 06:15:32;;;;;;;22.48;14.55;;;;;;;5.13;73.05;94274.59;2054373;70;20192;-75
2022/11/12 06:18:17;;;;;;;18.42;12.23;;;;;;;5.07;73.42;94283.06;2054277;70;20161;-75
2022/11/12 06:21:26;;;;;;;21.42;10.55;;;;;;;5.05;73.36;94288.47;2054317;69;20149;-75
2022/11/12 06:24:10;;;;;;;16.85;9.10;;;;;;;4.95;73.76;94283.81;2052198;70;20153;-75
2022/11/12 06:26:54;;;;;;;11.70;8.45;;;;;;;4.80;73.90;94287.88;2054301;70;20156;-75
2022/11/12 06:29:39;;;;;;;38.65;20.35;;;;;;;4.61;75.75;94289.25;2054176;69;20236;-75
2022/11/12 06:32:24;;;;;;;36.70;21.15;;;;;;;4.83;74.98;94283.28;2054225;70;20262;-75
2022/11/12 06:35:08;;;;;;;39.17;23.83;;;;;;;4.94;74.30;94285.13;2054370;70;20224;-75
2022/11/12 06:37:54;;;;;;;31.77;20.15;;;;;;;4.94;74.08;94287.91;2054493;69;20184;-76
2022/11/12 06:40:38;;;;;;;36.03;22.50;;;;;;;4.90;74.44;94290.25;2054281;69;20220;-75
2022/11/12 06:43:24;;;;;;;39.42;23.65;;;;;;;5.03;73.37;94293.06;2054237;69;20141;-75
2022/11/12 06:46:14;;;;;;;34.78;24.05;;;;;;;4.83;74.35;94277.72;2054242;69;20221;-78
2022/11/12 06:48:58;;;;;;;34.05;22.80;;;;;;;5.00;73.12;94294.91;2051528;70;20231;-77
2022/11/12 06:51:42;;;;;;;33.35;20.95;;;;;;;5.03;73.58;94293.06;2054368;70;20633;-77
2022/11/12 06:54:26;;;;;;;34.85;20.05;;;;;;;4.86;73.93;94287.81;2054352;69;20238;-78
2022/11/12 06:57:11;;;;;;;30.27;20.85;;;;;;;5.02;73.99;94289.53;2054301;69;20247;-76
2022/11/12 06:59:56;;;;;;;35.28;21.40;;;;;;;4.92;74.25;94282.88;2054384;69;20224;-78
2022/11/12 07:02:40;;;;;;;33.13;20.05;;;;;;;4.97;74.15;94295.22;2054201;70;20250;-78
2022/11/12 07:05:24;;;;;;;27.02;19.48;;;;;;;4.99;74.62;94289.84;2054228;70;20296;-78
2022/11/12 07:08:09;;;;;;;25.75;17.42;;;;;;;5.17;73.68;94288.97;2054210;70;20161;-77
2022/11/12 07:10:57;;;;;;;23.67;16.08;;;;;;;5.14;74.16;94286.53;2054253;69;20176;-78
2022/11/12 07:13:43;;;;;;;26.85;18.38;;;;;;;5.19;74.02;94292.00;2054117;69;20185;-78
2022/11/12 07:16:27;;;;;;;31.85;20.65;;;;;;;5.29;73.92;94278.34;2054541;69;20148;-80
2022/11/12 07:19:11;;;;;;;25.98;17.85;;;;;;;5.47;72.98;94277.47;2055386;70;20300;-78
2022/11/12 07:21:55;;;;;;;27.95;18.83;;;;;;;5.53;72.98;94280.88;2056189;70;20525;-76
2022/11/12 07:24:39;;;;;;;23.63;17.02;;;;;;;5.55;73.18;94278.31;2055614;69;20193;-77
2022/11/12 07:27:23;;;;;;;18.15;13.20;;;;;;;5.60;73.29;94274.66;2056274;69;20153;-78
2022/11/12 07:30:08;;;;;;;19.55;14.00;;;;;;;5.48;73.46;94278.97;2054885;69;20145;-78
2022/11/12 07:32:56;;;;;;;39.50;24.70;;;;;;;5.42;73.91;94285.97;2055047;69;20274;-77
2022/11/12 07:35:41;;;;;;;39.63;22.95;;;;;;;5.47;73.93;94282.31;2052274;70;20253;-75
2022/11/12 07:38:27;;;;;;;40.47;25.17;;;;;;;5.58;74.17;94296.03;2057936;69;20201;-77
2022/11/12 07:41:20;;;;;;;36.95;23.50;;;;;;;5.69;74.44;94286.69;2057662;70;20657;-76
2022/11/12 07:44:05;;;;;;;33.90;21.35;;;;;;;5.79;73.99;94287.72;2058360;70;20216;-77
2022/11/12 07:46:49;;;;;;;33.88;22.05;;;;;;;5.77;73.82;94276.31;2055095;69;20161;-78
2022/11/12 07:49:33;;;;;;;35.55;21.40;;;;;;;5.69;73.27;94276.25;2055546;69;20266;-78
2022/11/12 07:52:17;;;;;;;31.17;20.88;;;;;;;5.88;73.26;94276.09;2054960;69;20249;-77
2022/11/12 07:55:01;;;;;;;33.08;21.63;;;;;;;5.99;73.32;94287.03;2055556;69;20165;-77
2022/11/12 07:57:46;;;;;;;31.98;19.90;;;;;;;6.07;73.29;94284.31;2055647;69;20161;-78
2022/11/12 08:00:30;;;;;;;25.25;16.75;;;;;;;6.28;72.73;94290.69;2055024;70;20152;-78
2022/11/12 08:03:14;;;;;;;24.48;14.93;;;;;;;6.29;71.41;94261.44;2055195;69;20280;-78
2022/11/12 08:05:59;;;;;;;21.02;15.40;;;;;;;6.53;71.06;94288.31;2054941;69;20192;-77
2022/11/12 08:08:44;;;;;;;21.55;15.00;;;;;;;6.66;71.54;94295.88;2055083;70;20161;-78
2022/11/12 08:11:28;;;;;;;22.40;15.30;;;;;;;6.61;71.33;94285.59;2055005;69;20212;-79
2022/11/12 08:14:12;;;;;;;26.83;16.05;;;;;;;6.83;71.94;94290.63;2055933;70;20157;-78
2022/11/12 08:16:56;;;;;;;24.83;16.20;;;;;;;6.99;70.20;94293.50;2055113;70;20216;-79
2022/11/12 08:19:40;;;;;;;31.27;17.58;;;;;;;6.92;71.74;94292.19;2054925;70;20221;-79
2022/11/12 08:22:24;;;;;;;34.22;19.23;;;;;;;7.34;71.10;94287.22;2054968;69;20172;-78
2022/11/12 08:25:09;;;;;;;30.48;16.70;;;;;;;7.36;70.56;94287.41;2054802;70;20156;-77
2022/11/12 08:27:58;;;;;;;28.15;15.82;;;;;;;7.76;71.19;94284.22;2054770;69;20145;-79
2022/11/12 08:30:43;;;;;;;29.10;15.25;;;;;;;7.96;70.08;94287.47;2054667;70;20239;-78
2022/11/12 08:33:27;;;;;;;33.13;16.00;;;;;;;8.05;69.92;94284.13;2054756;70;20160;-79
2022/11/12 08:36:13;;;;;;;43.80;17.17;;;;;;;8.20;69.62;94287.00;2054842;69;20315;-76
2022/11/12 08:38:57;;;;;;;42.55;16.23;;;;;;;8.34;69.48;94293.97;2054653;69;20169;-75
2022/11/12 08:41:41;;;;;;;30.52;15.05;;;;;;;8.43;67.39;94289.88;2054582;70;20242;-75
2022/11/12 08:44:25;;;;;;;27.10;14.93;;;;;;;8.54;66.67;94274.72;2054663;70;20160;-75
2022/11/12 08:47:09;;;;;;;29.05;17.05;;;;;;;8.58;65.73;94287.09;2054685;69;20536;-75
2022/11/12 08:49:53;;;;;;;28.80;14.60;;;;;;;8.77;65.15;94291.59;2054676;69;20231;-77
2022/11/12 08:52:37;;;;;;;25.17;15.07;;;;;;;8.85;65.09;94281.13;2054674;69;20157;-76
2022/11/12 08:55:21;;;;;;;29.23;15.05;;;;;;;9.06;64.78;94278.84;2054798;69;20180;-78
2022/11/12 08:58:05;;;;;;;30.13;15.77;;;;;;;9.03;66.05;94276.44;2052298;70;20177;-77
2022/11/12 09:00:50;;;;;;;33.28;16.13;;;;;;;9.43;65.25;94266.03;2052148;70;20169;-76
2022/11/12 09:03:35;;;;;;;30.58;16.02;;;;;;;9.50;65.53;94269.41;2053700;70;20229;-77
2022/11/12 09:06:19;;;;;;;27.63;16.60;;;;;;;9.68;64.48;94263.34;2054756;69;20277;-79
2022/11/12 09:09:05;;;;;;;31.60;17.42;;;;;;;10.14;64.56;94271.56;2054703;69;20369;-77
2022/11/12 09:11:49;;;;;;;28.73;17.58;;;;;;;10.35;63.76;94262.84;2052024;70;20176;-78
2022/11/12 09:14:33;;;;;;;27.40;16.38;;;;;;;10.60;62.96;94271.31;2054364;69;20181;-78
2022/11/12 09:17:18;;;;;;;28.67;16.55;;;;;;;10.97;61.36;94254.69;2054748;69;20270;-78
2022/11/12 09:20:03;;;;;;;27.80;15.05;;;;;;;11.00;60.67;94242.28;2054681;69;20592;-78
2022/11/12 09:22:47;;;;;;;27.98;14.48;;;;;;;11.01;58.39;94248.66;2054730;69;20149;-78
2022/11/12 09:25:32;;;;;;;32.53;17.73;;;;;;;10.95;58.35;94251.72;2054821;69;20220;-78
2022/11/12 09:28:18;;;;;;;23.40;15.05;;;;;;;11.17;60.14;94252.81;2054630;69;20197;-77
2022/11/12 09:31:07;;;;;;;16.52;7.78;;;;;;;11.00;60.72;94245.09;2054709;69;20169;-77
2022/11/12 09:33:51;;;;;;;12.38;7.88;;;;;;;11.28;60.40;94245.97;2054958;70;20153;-78
2022/11/12 09:36:39;;;;;;;15.57;8.93;;;;;;;11.65;61.38;94256.09;2051900;70;20153;-78
2022/11/12 09:39:23;;;;;;;14.93;8.30;;;;;;;12.08;59.66;94251.09;2054648;69;20160;-78
2022/11/12 09:42:20;;;;;;;15.02;8.68;;;;;;;12.43;55.43;94246.09;2054445;69;20323;-79
2022/11/12 09:45:29;;;;;;;11.68;7.18;;;;;;;12.64;54.20;94247.69;2054682;69;20183;-76
2022/11/12 09:48:24;;;;;;;11.32;6.45;;;;;;;13.04;52.84;94241.59;2054372;70;20149;-76
2022/11/12 09:51:26;;;;;;;15.07;8.35;;;;;;;13.49;53.04;94250.63;2054360;69;20153;-77
2022/11/12 09:54:18;;;;;;;11.73;8.57;;;;;;;13.57;52.71;94234.25;2054426;70;20548;-76
2022/11/12 09:57:04;;;;;;;14.00;8.07;;;;;;;13.72;50.88;94242.47;2054500;70;20169;-77
2022/11/12 09:59:48;;;;;;;13.38;7.32;;;;;;;13.82;49.10;94239.63;2054469;69;20192;-76
2022/11/12 10:02:45;;;;;;;11.40;5.93;;;;;;;14.33;46.26;94225.53;2055520;70;20153;-76
2022/11/12 10:05:33;;;;;;;20.77;12.23;;;;;;;14.74;47.28;94235.59;2055198;70;20188;-77
2022/11/12 10:09:29;;;;;;;22.67;12.82;;;;;;;14.99;45.28;94231.63;2054642;69;20224;-76
2022/11/12 10:12:44;;;;;;;15.25;9.80;;;;;;;15.36;46.32;94225.59;2037153;70;20222;-77
2022/11/12 10:19:03;;;;;;;4.68;3.63;;;;;;;14.56;47.15;94225.81;2039645;70;20174;-79
2022/11/12 10:22:09;;;;;;;7.72;3.60;;;;;;;14.92;43.85;94218.34;2040610;70;20154;-79
2022/11/12 10:24:54;;;;;;;8.07;3.55;;;;;;;15.35;44.97;94221.25;2040484;70;20250;-76
2022/11/12 10:27:40;;;;;;;6.07;3.53;;;;;;;15.24;42.42;94220.56;2040500;70;20309;-79
2022/11/12 10:30:25;;;;;;;8.40;4.07;;;;;;;15.34;40.93;94222.59;2040666;70;20265;-79
2022/11/12 10:33:15;;;;;;;4.90;3.15;;;;;;;16.26;43.08;94210.25;2040550;70;20158;-78
2022/11/12 10:36:28;;;;;;;7.30;4.25;;;;;;;17.34;39.67;94206.88;2040453;70;20527;-78
2022/11/12 10:39:32;;;;;;;;;;;;;;;17.83;38.83;94210.50;2040756;70;20519;-79
2022/11/12 10:42:19;;;;;;;5.72;3.17;;;;;;;18.67;37.51;94207.38;2040471;70;20092;-79
2022/11/12 10:45:22;;;;;;;6.63;3.33;;;;;;;19.06;37.02;94192.38;2041666;70;20206;-79
2022/11/12 10:48:20;;;;;;;3.95;2.80;;;;;;;18.93;37.13;94202.38;2051012;70;20321;-79
2022/11/12 10:51:20;;;;;;;4.65;2.63;;;;;;;18.52;34.75;94199.41;2050983;70;20354;-78
2022/11/12 10:54:35;;;;;;;3.30;2.40;;;;;;;18.66;37.13;94194.47;2051785;70;20334;-78
2022/11/12 10:57:24;;;;;;;4.60;2.55;;;;;;;17.77;36.24;94190.94;2052175;70;20681;-77
2022/11/12 11:00:12;;;;;;;5.25;2.83;;;;;;;18.38;37.22;94193.66;2052090;70;20526;-76
2022/11/12 11:02:56;;;;;;;3.80;2.38;;;;;;;18.90;35.92;94192.22;2052025;70;20273;-75
2022/11/12 11:05:53;;;;;;;3.50;2.47;;;;;;;19.14;36.27;94187.06;2052064;70;20146;-78
2022/11/12 11:08:39;;;;;;;4.65;2.83;;;;;;;20.04;33.18;94183.81;2051992;70;20612;-76
2022/11/12 11:11:23;;;;;;;3.08;2.50;;;;;;;21.08;34.45;94179.41;2051943;70;20146;-77
2022/11/12 11:14:26;;;;;;;3.22;2.50;;;;;;;22.09;34.35;94173.72;2051883;70;20189;-78
2022/11/12 11:17:17;;;;;;;6.03;3.22;;;;;;;21.04;32.33;94179.94;2052389;69;20997;-76
2022/11/12 11:20:04;;;;;;;4.57;3.30;;;;;;;21.04;33.19;94165.63;2055267;70;20233;-76
2022/11/12 11:22:55;;;;;;;3.30;2.47;;;;;;;20.81;33.09;94166.75;2055164;69;20292;-76
2022/11/12 11:25:41;;;;;;;4.13;2.60;;;;;;;20.93;33.23;94174.41;2055219;69;20161;-76
2022/11/12 11:28:41;;;;;;;4.75;2.67;;;;;;;21.06;31.57;94156.38;2055181;69;20149;-77
2022/11/12 11:32:10;;;;;;;4.35;2.60;;;;;;;21.46;33.10;94160.34;2055198;69;20237;-77
2022/11/12 11:35:06;;;;;;;6.25;2.70;;;;;;;21.54;32.41;94148.50;2049433;70;20242;-78
2022/11/12 11:38:02;;;;;;;3.97;2.60;;;;;;;20.86;32.77;94149.75;2055171;69;20660;-77
2022/11/12 11:41:15;;;;;;;4.10;3.30;;;;;;;19.59;32.63;94140.81;2055302;69;20204;-78
2022/11/12 11:44:32;;;;;;;6.95;5.47;;;;;;;18.63;35.11;94132.25;2054613;69;20235;-74
2022/11/12 11:47:34;;;;;;;4.68;2.72;;;;;;;18.53;35.54;94126.75;2052002;70;20245;-75
2022/11/12 11:50:31;;;;;;;4.55;2.50;;;;;;;18.77;37.07;94127.31;2052325;70;20271;-74
2022/11/12 11:53:33;;;;;;;4.75;3.10;;;;;;;18.12;37.66;94115.25;2052243;70;20145;-74
2022/11/12 11:56:26;;;;;;;4.22;3.00;;;;;;;18.13;37.27;94108.16;2052939;70;20608;-75
2022/11/12 11:59:29;;;;;;;5.05;2.92;;;;;;;17.41;38.24;94112.69;2055105;69;20586;-75
2022/11/12 12:02:48;;;;;;;3.50;3.00;;;;;;;16.82;40.85;94106.38;2052204;70;20148;-75
2022/11/12 12:05:36;;;;;;;5.70;2.97;;;;;;;16.94;41.06;94097.81;2054543;69;20205;-74
2022/11/12 12:08:46;;;;;;;4.18;3.17;;;;;;;17.01;40.16;94096.81;2054442;69;20158;-74
2022/11/12 12:11:30;;;;;;;5.95;3.20;;;;;;;16.18;40.88;94089.66;2054453;69;20236;-74
2022/11/12 12:14:34;;;;;;;4.90;2.90;;;;;;;16.05;42.14;94082.47;2054342;69;20245;-76
2022/11/12 12:17:33;;;;;;;;;;;;;;;16.81;41.67;94082.13;2054547;70;20158;-74
2022/11/12 12:20:34;;;;;;;3.95;2.70;;;;;;;16.93;40.19;94074.31;2054481;69;20117;-74
2022/11/12 12:23:45;;;;;;;4.13;2.22;;;;;;;16.52;39.48;94066.16;2054141;69;20161;-74
2022/11/12 12:27:08;;;;;;;4.72;2.60;;;;;;;16.71;39.89;94070.13;2053487;70;20673;-78
2022/11/12 12:29:57;;;;;;;4.93;3.10;;;;;;;16.07;43.59;94065.53;2054193;69;20165;-77
2022/11/12 12:33:01;;;;;;;3.53;2.67;;;;;;;15.93;45.56;94047.63;2054158;69;20161;-78
2022/11/12 12:35:57;;;;;;;4.10;2.60;;;;;;;16.36;44.45;94059.53;2054203;69;20260;-78
2022/11/12 12:39:06;;;;;;;3.17;2.40;;;;;;;16.59;43.92;94052.34;2053140;70;20160;-77
2022/11/12 12:42:04;;;;;;;4.72;3.22;;;;;;;16.45;43.76;94046.53;2051882;70;20343;-77
2022/11/12 12:45:18;;;;;;;6.63;3.10;;;;;;;16.39;44.25;94043.31;2053153;70;20196;-76
2022/11/12 12:48:07;;;;;;;;;;;;;;;16.39;44.23;94035.53;2054580;69;20196;-74
2022/11/12 12:50:52;;;;;;;3.85;2.13;;;;;;;15.56;45.92;94027.50;2054219;69;20105;-74
2022/11/12 12:53:40;;;;;;;9.35;5.28;;;;;;;15.53;43.75;94029.47;2054246;69;20212;-74
2022/11/12 12:56:31;;;;;;;9.27;4.72;;;;;;;16.04;43.49;94027.00;2053952;69;20196;-74
2022/11/12 12:59:22;;;;;;;4.43;2.20;;;;;;;16.10;43.55;94018.84;2053767;70;20633;-74
2022/11/12 13:02:23;;;;;;;5.20;2.90;;;;;;;16.04;43.81;94012.06;2054275;70;20597;-73
2022/11/12 13:05:31;;;;;;;4.68;3.40;;;;;;;16.02;44.52;94007.72;2054357;70;20240;-74
2022/11/12 13:08:23;;;;;;;4.43;3.30;;;;;;;16.01;44.71;94014.78;2054380;70;20157;-74
2022/11/12 13:11:08;;;;;;;3.72;2.60;;;;;;;16.10;43.61;94015.28;2054539;69;20697;-74
2022/11/12 13:13:52;;;;;;;5.03;2.42;;;;;;;15.93;43.35;94005.75;2054077;69;20226;-75
2022/11/12 13:16:48;;;;;;;4.25;3.03;;;;;;;15.67;42.92;94021.16;2054167;69;20149;-73
2022/11/12 13:19:35;;;;;;;4.25;2.92;;;;;;;15.67;44.45;94015.50;2054291;69;20145;-74
2022/11/12 13:22:25;;;;;;;3.75;2.70;;;;;;;15.72;45.03;94023.63;2054248;69;20633;-73
2022/11/12 13:25:13;;;;;;;5.20;3.47;;;;;;;15.40;44.84;94019.47;2054287;70;20524;-74
2022/11/12 13:28:09;;;;;;;4.07;3.20;;;;;;;14.85;46.69;94021.56;2054531;69;20216;-74
2022/11/12 13:30:55;;;;;;;4.35;2.60;;;;;;;15.22;46.03;94021.13;2054148;69;20208;-73
2022/11/12 13:33:39;;;;;;;6.72;2.90;;;;;;;14.95;45.53;94021.50;2054260;69;20144;-74
2022/11/12 13:36:26;;;;;;;5.20;2.67;;;;;;;14.99;46.40;94025.34;2054415;69;20269;-72
2022/11/12 13:39:17;;;;;;;4.88;3.30;;;;;;;14.88;48.36;94028.84;2051017;70;20173;-74
2022/11/12 13:45:17;;;;;;;;;;;;;;;15.16;44.78;94018.63;2051123;70;20192;-73